createdAt,value
2022-11-05T00:00:36.599Z,99421.22
2022-11-05T00:03:22.080Z,99414.38
2022-11-05T00:06:09.953Z,99413.88
2022-11-05T00:08:55.721Z,99417.63
2022-11-05T00:11:42.590Z,99417.59
2022-11-05T00:14:28.207Z,99419.66
2022-11-05T00:16:55.046Z,99419.22
2022-11-05T00:19:21.832Z,99420.56
2022-11-05T00:22:07.342Z,99416.34
2022-11-05T00:24:53.067Z,99420.50
2022-11-05T00:27:19.971Z,99421.94
2022-11-05T00:29:46.742Z,99420.06
2022-11-05T00:32:13.570Z,99422.44
2022-11-05T00:34:40.447Z,99423.50
2022-11-05T00:37:07.274Z,99421.16
2022-11-05T00:39:34.169Z,99424.50
2022-11-05T00:42:19.494Z,99419.59
2022-11-05T00:45:01.504Z,99422.00
2022-11-05T00:47:47.744Z,99423.25
2022-11-05T00:50:14.661Z,99428.88
2022-11-05T00:52:56.952Z,99432.84
2022-11-05T00:55:35.296Z,99427.91
2022-11-05T00:58:03.090Z,99426.78
2022-11-05T01:00:31.696Z,99419.47
2022-11-05T01:03:00.422Z,99424.50
2022-11-05T01:05:29.007Z,99418.97
2022-11-05T01:07:56.002Z,99422.97
2022-11-05T01:10:23.176Z,99414.97
2022-11-05T01:12:50.664Z,99406.50
2022-11-05T01:15:18.464Z,99403.78
2022-11-05T01:17:45.272Z,99398.88
2022-11-05T01:20:12.775Z,99404.44
2022-11-05T01:22:39.693Z,99404.22
2022-11-05T01:25:07.591Z,99394.81
2022-11-05T01:27:36.383Z,99394.94
2022-11-05T01:30:05.451Z,99388.81
2022-11-05T01:32:32.248Z,99378.19
2022-11-05T01:34:59.185Z,99387.34
2022-11-05T01:37:25.974Z,99390.59
2022-11-05T01:39:52.735Z,99383.78
2022-11-05T01:42:22.944Z,99381.81
2022-11-05T01:44:57.156Z,99380.16
2022-11-05T01:47:51.955Z,99377.66
2022-11-05T01:50:36.983Z,99378.09
2022-11-05T01:53:13.364Z,99374.47
2022-11-05T01:55:46.231Z,99366.28
2022-11-05T01:58:19.341Z,99371.63
2022-11-05T02:00:46.209Z,99374.97
2022-11-05T02:03:16.632Z,99378.34
2022-11-05T02:05:44.423Z,99373.84
2022-11-05T02:08:19.501Z,99371.88
2022-11-05T02:10:46.555Z,99372.72
2022-11-05T02:13:13.638Z,99368.53
2022-11-05T02:15:51.060Z,99380.88
2022-11-05T02:18:23.793Z,99380.94
2022-11-05T02:21:03.899Z,99376.69
2022-11-05T02:23:39.887Z,99374.81
2022-11-05T02:26:27.434Z,99382.50
2022-11-05T02:29:38.678Z,99381.91
2022-11-05T02:32:13.944Z,99372.22
2022-11-05T02:34:55.747Z,99366.91
2022-11-05T02:37:58.732Z,99366.22
2022-11-05T02:40:46.301Z,99376.69
2022-11-05T02:44:01.682Z,99377.38
2022-11-05T02:46:52.037Z,99377.25
2022-11-05T02:49:31.381Z,99377.91
2022-11-05T02:52:02.206Z,99383.44
2022-11-05T02:54:48.296Z,99385.59
2022-11-05T02:57:15.087Z,99381.16
2022-11-05T02:59:41.932Z,99384.06
2022-11-05T03:02:09.062Z,99382.88
2022-11-05T03:04:36.014Z,99387.56
2022-11-05T03:07:02.731Z,99387.66
2022-11-05T03:10:03.029Z,99387.41
2022-11-05T03:12:57.181Z,99382.72
2022-11-05T03:16:02.627Z,99381.59
2022-11-05T03:18:35.084Z,99386.25
2022-11-05T03:21:30.468Z,99383.03
2022-11-05T03:24:08.277Z,99377.66
2022-11-05T03:27:07.364Z,99376.47
2022-11-05T03:29:39.267Z,99380.63
2022-11-05T03:32:09.493Z,99385.44
2022-11-05T03:34:42.530Z,99378.91
2022-11-05T03:37:10.895Z,99381.06
2022-11-05T03:39:42.921Z,99399.13
2022-11-05T03:42:12.846Z,99392.94
2022-11-05T03:44:46.486Z,99389.44
2022-11-05T03:47:22.237Z,99394.78
2022-11-05T03:49:58.480Z,99384.69
2022-11-05T03:52:29.642Z,99378.72
2022-11-05T03:54:56.751Z,99391.31
2022-11-05T03:57:31.496Z,99383.03
2022-11-05T03:59:58.404Z,99387.47
2022-11-05T04:02:26.973Z,99387.13
2022-11-05T04:04:54.475Z,99380.53
2022-11-05T04:07:39.814Z,99387.03
2022-11-05T04:10:25.420Z,99392.34
2022-11-05T04:13:11.161Z,99389.06
2022-11-05T04:16:13.405Z,99385.81
2022-11-05T04:18:40.859Z,99377.69
2022-11-05T04:21:28.852Z,99377.06
2022-11-05T04:24:10.912Z,99390.41
2022-11-05T04:26:41.391Z,99384.03
2022-11-05T04:29:26.900Z,99374.78
2022-11-05T04:31:54.096Z,99383.44
2022-11-05T04:34:22.302Z,99385.47
2022-11-05T04:36:53.256Z,99384.84
2022-11-05T04:39:21.623Z,99390.03
2022-11-05T04:41:48.824Z,99388.81
2022-11-05T04:44:17.107Z,99386.31
2022-11-05T04:46:43.969Z,99382.22
2022-11-05T04:49:10.797Z,99374.53
2022-11-05T04:51:37.636Z,99387.16
2022-11-05T04:54:04.579Z,99393.03
2022-11-05T04:56:31.408Z,99385.34
2022-11-05T04:58:58.216Z,99398.53
2022-11-05T05:01:25.800Z,99399.41
2022-11-05T05:03:54.200Z,99402.53
2022-11-05T05:06:21.747Z,99403.94
2022-11-05T05:08:50.099Z,99405.38
2022-11-05T05:11:19.465Z,99403.47
2022-11-05T05:13:46.945Z,99403.84
2022-11-05T05:16:31.530Z,99417.66
2022-11-05T05:18:58.348Z,99416.69
2022-11-05T05:21:40.606Z,99413.22
2022-11-05T05:24:18.813Z,99423.16
2022-11-05T05:26:47.190Z,99424.47
2022-11-05T05:29:14.851Z,99430.72
2022-11-05T05:31:42.371Z,99430.75
2022-11-05T05:34:12.948Z,99429.16
2022-11-05T05:36:40.533Z,99439.16
2022-11-05T05:39:08.775Z,99440.34
2022-11-05T05:41:35.705Z,99444.69
2022-11-05T05:44:04.458Z,99447.56
2022-11-05T05:46:31.220Z,99444.19
2022-11-05T05:48:58.233Z,99442.91
2022-11-05T05:51:25.120Z,99449.50
2022-11-05T05:53:53.821Z,99452.25
2022-11-05T05:56:20.917Z,99460.53
2022-11-05T05:58:47.975Z,99453.16
2022-11-05T06:01:19.236Z,99458.78
2022-11-05T06:03:47.600Z,99467.78
2022-11-05T06:06:16.271Z,99470.94
2022-11-05T06:08:43.236Z,99474.03
2022-11-05T06:11:10.251Z,99482.66
2022-11-05T06:13:37.865Z,99483.09
2022-11-05T06:16:07.584Z,99476.59
2022-11-05T06:18:35.691Z,99494.84
2022-11-05T06:21:10.900Z,99495.75
2022-11-05T06:23:39.429Z,99495.41
2022-11-05T06:26:09.228Z,99506.84
2022-11-05T06:28:36.503Z,99503.81
2022-11-05T06:31:03.812Z,99499.50
2022-11-05T06:33:30.980Z,99498.69
2022-11-05T06:36:05.105Z,99509.16
2022-11-05T06:38:34.077Z,99520.16
2022-11-05T06:41:07.176Z,99516.84
2022-11-05T06:43:37.243Z,99523.44
2022-11-05T06:46:04.435Z,99524.66
2022-11-05T06:48:31.255Z,99520.69
2022-11-05T06:50:58.690Z,99520.88
2022-11-05T06:53:25.508Z,99525.00
2022-11-05T06:55:52.331Z,99524.47
2022-11-05T06:58:19.238Z,99512.91
2022-11-05T07:00:46.395Z,99515.03
2022-11-05T07:03:14.499Z,99520.25
2022-11-05T07:05:48.017Z,99522.66
2022-11-05T07:08:15.135Z,99522.78
2022-11-05T07:10:42.032Z,99507.56
2022-11-05T07:13:09.341Z,99511.69
2022-11-05T07:15:37.423Z,99518.28
2022-11-05T07:18:07.327Z,99514.63
2022-11-05T07:20:34.933Z,99509.28
2022-11-05T07:23:04.154Z,99514.50
2022-11-05T07:25:32.895Z,99506.41
2022-11-05T07:28:00.110Z,99499.94
2022-11-05T07:30:27.913Z,99498.91
2022-11-05T07:32:55.247Z,99495.75
2022-11-05T07:35:22.556Z,99494.63
2022-11-05T07:37:51.504Z,99495.59
2022-11-05T07:40:19.436Z,99493.41
2022-11-05T07:42:48.542Z,99488.09
2022-11-05T07:45:16.107Z,99495.81
2022-11-05T07:47:51.452Z,99495.94
2022-11-05T07:50:20.164Z,99493.38
2022-11-05T07:52:48.255Z,99485.03
2022-11-05T07:55:16.031Z,99486.50
2022-11-05T07:57:51.039Z,99488.63
2022-11-05T08:00:21.614Z,99481.94
2022-11-05T08:03:13.200Z,99477.72
2022-11-05T08:05:44.771Z,99477.06
2022-11-05T08:08:17.707Z,99462.84
2022-11-05T08:10:45.074Z,99472.38
2022-11-05T08:13:13.365Z,99483.41
2022-11-05T08:15:41.096Z,99478.75
2022-11-05T08:18:18.260Z,99481.56
2022-11-05T08:20:46.557Z,99479.22
2022-11-05T08:23:14.518Z,99473.53
2022-11-05T08:25:42.081Z,99479.25
2022-11-05T08:28:12.233Z,99470.56
2022-11-05T08:30:39.661Z,99469.06
2022-11-05T08:33:13.201Z,99468.88
2022-11-05T08:35:40.609Z,99473.22
2022-11-05T08:38:10.267Z,99459.84
2022-11-05T08:40:37.872Z,99467.47
2022-11-05T08:43:06.840Z,99471.66
2022-11-05T08:45:34.893Z,99470.13
2022-11-05T08:48:03.024Z,99472.41
2022-11-05T08:50:31.130Z,99473.34
2022-11-05T08:52:57.977Z,99467.09
2022-11-05T08:55:25.446Z,99469.91
2022-11-05T08:57:56.703Z,99471.41
2022-11-05T09:00:24.057Z,99465.59
2022-11-05T09:02:50.976Z,99464.50
2022-11-05T09:05:17.937Z,99459.56
2022-11-05T09:07:46.642Z,99466.09
2022-11-05T09:10:13.595Z,99448.97
2022-11-05T09:12:40.375Z,99451.56
2022-11-05T09:15:07.822Z,99449.25
2022-11-05T09:17:34.728Z,99449.94
2022-11-05T09:20:03.523Z,99456.53
2022-11-05T09:22:30.983Z,99455.53
2022-11-05T09:24:57.746Z,99444.06
2022-11-05T09:27:24.560Z,99446.00
2022-11-05T09:29:51.431Z,99441.75
2022-11-05T09:32:19.382Z,99437.06
2022-11-05T09:34:48.564Z,99448.78
2022-11-05T09:37:15.645Z,99448.47
2022-11-05T09:39:42.485Z,99450.72
2022-11-05T09:42:13.522Z,99445.97
2022-11-05T09:45:13.898Z,99451.00
2022-11-05T09:47:44.564Z,99446.88
2022-11-05T09:50:17.450Z,99445.13
2022-11-05T09:52:44.989Z,99432.50
2022-11-05T09:55:23.717Z,99430.63
2022-11-05T09:57:56.073Z,99430.56
2022-11-05T10:00:23.100Z,99431.09
2022-11-05T10:03:13.455Z,99423.72
2022-11-05T10:05:41.289Z,99421.03
2022-11-05T10:08:17.248Z,99420.38
2022-11-05T10:10:49.944Z,99419.44
2022-11-05T10:13:29.809Z,99422.72
2022-11-05T10:16:04.521Z,99416.97
2022-11-05T10:18:39.604Z,99423.81
2022-11-05T10:21:07.379Z,99422.88
2022-11-05T10:23:34.697Z,99425.53
2022-11-05T10:26:10.601Z,99432.59
2022-11-05T10:28:37.780Z,99428.63
2022-11-05T10:31:08.579Z,99421.91
2022-11-05T10:33:51.688Z,99420.19
2022-11-05T10:36:32.170Z,99420.78
2022-11-05T10:39:06.230Z,99411.06
2022-11-05T10:41:44.029Z,99414.00
2022-11-05T10:44:33.345Z,99406.31
2022-11-05T10:47:16.678Z,99412.66
2022-11-05T10:50:11.466Z,99408.78
2022-11-05T10:52:40.196Z,99403.06
2022-11-05T10:55:32.955Z,99407.50
2022-11-05T10:58:08.888Z,99401.19
2022-11-05T11:00:36.612Z,99404.56
2022-11-05T11:03:05.918Z,99387.28
2022-11-05T11:05:35.571Z,99386.41
2022-11-05T11:08:10.969Z,99383.91
2022-11-05T11:10:42.398Z,99389.38
2022-11-05T11:13:48.333Z,99381.25
2022-11-05T11:16:19.959Z,99386.56
2022-11-05T11:18:46.793Z,99381.47
2022-11-05T11:21:26.303Z,99381.25
2022-11-05T11:24:03.033Z,99365.44
2022-11-05T11:26:38.885Z,99365.53
2022-11-05T11:29:25.892Z,99373.84
2022-11-05T11:31:58.165Z,99380.47
2022-11-05T11:34:30.984Z,99372.78
2022-11-05T11:37:26.524Z,99363.19
2022-11-05T11:40:02.124Z,99366.09
2022-11-05T11:42:40.012Z,99372.78
2022-11-05T11:45:30.108Z,99375.88
2022-11-05T11:48:00.436Z,99371.66
2022-11-05T11:50:48.223Z,99369.75
2022-11-05T11:53:26.105Z,99360.00
2022-11-05T11:55:56.012Z,99364.22
2022-11-05T11:58:25.711Z,99369.16
2022-11-05T12:01:07.108Z,99364.97
2022-11-05T12:03:51.570Z,99354.38
2022-11-05T12:06:18.318Z,99358.72
2022-11-05T12:09:06.686Z,99356.53
2022-11-05T12:11:42.097Z,99353.81
2022-11-05T12:14:17.747Z,99355.91
2022-11-05T12:17:14.546Z,99361.50
2022-11-05T12:19:59.240Z,99355.69
2022-11-05T12:22:33.139Z,99352.97
2022-11-05T12:25:09.317Z,99349.88
2022-11-05T12:28:17.919Z,99344.81
2022-11-05T12:31:16.383Z,99343.84
2022-11-05T12:34:07.836Z,99355.25
2022-11-05T12:36:43.701Z,99351.25
2022-11-05T12:39:34.466Z,99345.25
2022-11-05T12:42:32.112Z,99347.78
2022-11-05T12:45:12.681Z,99348.19
2022-11-05T12:48:14.739Z,99354.16
2022-11-05T12:50:55.512Z,99346.81
2022-11-05T12:54:17.830Z,99342.63
2022-11-05T12:56:49.334Z,99328.53
2022-11-05T12:59:16.128Z,99347.59
2022-11-05T13:02:27.892Z,99345.59
2022-11-05T13:05:14.057Z,99344.81
2022-11-05T13:07:56.795Z,99339.88
2022-11-05T13:10:43.643Z,99331.81
2022-11-05T13:13:25.431Z,99334.50
2022-11-05T13:15:57.489Z,99337.25
2022-11-05T13:18:47.463Z,99333.28
2022-11-05T13:21:15.904Z,99335.38
2022-11-05T13:23:55.463Z,99326.41
2022-11-05T13:26:45.211Z,99326.38
2022-11-05T13:29:18.143Z,99327.97
2022-11-05T13:32:01.514Z,99325.63
2022-11-05T13:34:32.211Z,99322.50
2022-11-05T13:37:24.066Z,99316.81
2022-11-05T13:39:55.692Z,99309.53
2022-11-05T13:43:00.316Z,99308.22
2022-11-05T13:45:48.167Z,99311.72
2022-11-05T13:48:42.647Z,99308.25
2022-11-05T13:51:41.414Z,99313.06
2022-11-05T13:54:17.669Z,99323.91
2022-11-05T13:57:12.353Z,99321.78
2022-11-05T13:59:45.701Z,99326.53
2022-11-05T14:02:12.508Z,99329.16
2022-11-05T14:04:45.417Z,99332.72
2022-11-05T14:07:21.851Z,99331.06
2022-11-05T14:10:01.467Z,99326.38
2022-11-05T14:12:31.886Z,99311.34
2022-11-05T14:15:23.812Z,99324.69
2022-11-05T14:18:03.245Z,99317.91
2022-11-05T14:20:33.019Z,99322.19
2022-11-05T14:23:24.542Z,99319.09
2022-11-05T14:25:51.385Z,99322.13
2022-11-05T14:28:40.096Z,99330.25
2022-11-05T14:31:19.118Z,99325.06
2022-11-05T14:34:10.673Z,99330.78
2022-11-05T14:37:23.716Z,99322.63
2022-11-05T14:39:51.247Z,99334.34
2022-11-05T14:42:24.968Z,99330.44
2022-11-05T14:45:23.719Z,99328.34
2022-11-05T14:47:57.749Z,99322.28
2022-11-05T14:50:41.930Z,99315.28
2022-11-05T14:53:24.256Z,99322.28
2022-11-05T14:56:01.022Z,99307.84
2022-11-05T14:58:30.985Z,99312.66
2022-11-05T15:00:59.109Z,99316.03
2022-11-05T15:03:32.012Z,99331.31
2022-11-05T15:06:28.917Z,99328.66
2022-11-05T15:09:04.376Z,99333.44
2022-11-05T15:12:03.532Z,99335.88
2022-11-05T15:14:59.477Z,99336.28
2022-11-05T15:17:30.755Z,99331.66
2022-11-05T15:20:09.453Z,99335.41
2022-11-05T15:22:41.579Z,99341.44
2022-11-05T15:25:27.106Z,99338.91
2022-11-05T15:28:24.901Z,99338.44
2022-11-05T15:31:02.834Z,99332.72
2022-11-05T15:33:30.501Z,99333.53
2022-11-05T15:36:19.938Z,99333.53
2022-11-05T15:39:08.226Z,99336.75
2022-11-05T15:41:34.687Z,99338.06
2022-11-05T15:44:02.819Z,99349.69
2022-11-05T15:46:30.034Z,99348.03
2022-11-05T15:48:59.780Z,99356.69
2022-11-05T15:51:26.972Z,99344.97
2022-11-05T15:54:23.788Z,99348.38
2022-11-05T15:56:51.268Z,99349.72
2022-11-05T15:59:23.779Z,99353.25
2022-11-05T16:01:54.446Z,99361.75
2022-11-05T16:04:29.988Z,99358.25
2022-11-05T16:07:00.904Z,99368.78
2022-11-05T16:09:30.097Z,99380.34
2022-11-05T16:12:18.742Z,99386.66
2022-11-05T16:15:11.574Z,99393.03
2022-11-05T16:17:50.257Z,99391.19
2022-11-05T16:20:21.702Z,99398.19
2022-11-05T16:22:51.031Z,99401.03
2022-11-05T16:25:40.402Z,99400.53
2022-11-05T16:28:28.477Z,99398.19
2022-11-05T16:30:56.823Z,99402.22
2022-11-05T16:33:26.125Z,99409.53
2022-11-05T16:35:53.350Z,99401.53
2022-11-05T16:38:20.611Z,99406.97
2022-11-05T16:40:47.634Z,99413.38
2022-11-05T16:43:22.312Z,99405.63
2022-11-05T16:45:49.728Z,99411.53
2022-11-05T16:48:16.960Z,99409.16
2022-11-05T16:50:44.289Z,99422.31
2022-11-05T16:53:12.248Z,99419.31
2022-11-05T16:55:41.520Z,99417.75
2022-11-05T16:58:20.922Z,99420.28
2022-11-05T17:00:49.679Z,99422.13
2022-11-05T17:03:16.609Z,99425.94
2022-11-05T17:05:43.430Z,99432.06
2022-11-05T17:08:10.668Z,99430.72
2022-11-05T17:10:38.020Z,99429.91
2022-11-05T17:13:04.830Z,99434.00
2022-11-05T17:15:36.300Z,99431.47
2022-11-05T17:18:04.985Z,99438.13
2022-11-05T17:20:46.483Z,99443.09
2022-11-05T17:23:16.383Z,99432.69
2022-11-05T17:25:45.941Z,99440.38
2022-11-05T17:28:14.036Z,99438.41
2022-11-05T17:30:42.094Z,99448.72
2022-11-05T17:33:11.308Z,99445.06
2022-11-05T17:35:39.884Z,99452.34
2022-11-05T17:38:06.714Z,99449.09
2022-11-05T17:40:35.093Z,99450.78
2022-11-05T17:43:02.424Z,99450.59
2022-11-05T17:45:29.229Z,99440.09
2022-11-05T17:47:56.141Z,99451.81
2022-11-05T17:50:23.072Z,99451.13
2022-11-05T17:52:49.867Z,99464.75
2022-11-05T17:55:17.463Z,99456.25
2022-11-05T17:57:49.311Z,99460.13
2022-11-05T18:00:19.314Z,99460.13
2022-11-05T18:02:48.537Z,99460.78
2022-11-05T18:05:20.057Z,99467.97
2022-11-05T18:07:47.315Z,99463.44
2022-11-05T18:10:14.945Z,99469.25
2022-11-05T18:12:42.589Z,99475.97
2022-11-05T18:15:10.048Z,99462.38
2022-11-05T18:17:37.168Z,99472.38
2022-11-05T18:20:09.900Z,99465.41
2022-11-05T18:22:40.256Z,99461.66
2022-11-05T18:25:08.329Z,99461.72
2022-11-05T18:27:35.687Z,99462.97
2022-11-05T18:30:02.692Z,99460.44
2022-11-05T18:32:29.551Z,99467.84
2022-11-05T18:34:56.362Z,99469.50
2022-11-05T18:37:23.354Z,99475.00
2022-11-05T18:39:52.039Z,99465.63
2022-11-05T18:42:20.426Z,99481.44
2022-11-05T18:44:48.150Z,99479.59
2022-11-05T18:47:15.445Z,99482.38
2022-11-05T18:49:42.334Z,99475.19
2022-11-05T18:52:09.227Z,99479.44
2022-11-05T18:54:36.248Z,99480.00
2022-11-05T18:57:03.181Z,99485.72
2022-11-05T18:59:39.451Z,99480.84
2022-11-05T19:02:08.681Z,99483.69
2022-11-05T19:04:36.498Z,99482.41
2022-11-05T19:07:05.489Z,99489.44
2022-11-05T19:09:37.112Z,99487.91
2022-11-05T19:12:05.000Z,99494.56
2022-11-05T19:14:32.414Z,99492.50
2022-11-05T19:17:00.303Z,99504.47
2022-11-05T19:19:27.700Z,99500.66
2022-11-05T19:21:54.752Z,99508.41
2022-11-05T19:24:21.626Z,99514.00
2022-11-05T19:26:48.645Z,99509.69
2022-11-05T19:29:15.460Z,99510.38
2022-11-05T19:31:42.362Z,99511.69
2022-11-05T19:34:09.204Z,99511.59
2022-11-05T19:36:36.168Z,99509.91
2022-11-05T19:39:06.549Z,99507.63
2022-11-05T19:41:33.689Z,99508.16
2022-11-05T19:44:03.744Z,99503.81
2022-11-05T19:46:31.617Z,99509.16
2022-11-05T19:49:00.554Z,99506.53
2022-11-05T19:51:30.038Z,99510.31
2022-11-05T19:53:59.882Z,99510.88
2022-11-05T19:56:30.026Z,99502.63
2022-11-05T19:58:57.540Z,99507.09
2022-11-05T20:01:26.866Z,99512.03
2022-11-05T20:03:55.411Z,99513.41
2022-11-05T20:06:26.482Z,99522.34
2022-11-05T20:09:20.039Z,99525.28
2022-11-05T20:11:40.629Z,99528.34
2022-11-05T20:14:09.644Z,99533.81
2022-11-05T20:16:40.447Z,99541.22
2022-11-05T20:19:10.608Z,99525.41
2022-11-05T20:21:37.794Z,99531.28
2022-11-05T20:24:05.085Z,99522.78
2022-11-05T20:26:31.990Z,99508.09
2022-11-05T20:28:58.820Z,99526.56
2022-11-05T20:31:25.816Z,99529.19
2022-11-05T20:33:53.422Z,99537.19
2022-11-05T20:36:23.351Z,99538.84
2022-11-05T20:38:52.636Z,99539.69
2022-11-05T20:41:19.781Z,99536.88
2022-11-05T20:43:48.068Z,99537.28
2022-11-05T20:46:17.804Z,99545.44
2022-11-05T20:48:45.136Z,99548.19
2022-11-05T20:51:15.365Z,99545.56
2022-11-05T20:53:43.182Z,99545.28
2022-11-05T20:56:20.691Z,99549.63
2022-11-05T20:58:47.607Z,99544.72
2022-11-05T21:01:16.682Z,99537.31
2022-11-05T21:03:45.381Z,99538.16
2022-11-05T21:06:13.013Z,99534.25
2022-11-05T21:08:40.195Z,99543.31
2022-11-05T21:11:07.431Z,99543.03
2022-11-05T21:13:34.578Z,99539.78
2022-11-05T21:16:01.981Z,99547.75
2022-11-05T21:18:32.283Z,99536.03
2022-11-05T21:21:01.856Z,99530.25
2022-11-05T21:23:28.986Z,99545.50
2022-11-05T21:25:56.084Z,99538.22
2022-11-05T21:28:23.380Z,99548.25
2022-11-05T21:30:50.200Z,99552.13
2022-11-05T21:33:18.625Z,99552.63
2022-11-05T21:35:48.201Z,99546.06
2022-11-05T21:38:17.229Z,99551.13
2022-11-05T21:40:44.882Z,99559.25
2022-11-05T21:43:12.237Z,99560.16
2022-11-05T21:45:40.092Z,99565.53
2022-11-05T21:48:08.168Z,99567.31
2022-11-05T21:50:54.557Z,99565.59
2022-11-05T21:53:40.035Z,99576.28
2022-11-05T21:56:27.081Z,99578.63
2022-11-05T21:59:12.509Z,99581.41
2022-11-05T22:01:39.506Z,99580.03
2022-11-05T22:04:06.460Z,99584.53
2022-11-05T22:06:33.860Z,99576.91
2022-11-05T22:09:00.650Z,99587.84
2022-11-05T22:11:27.528Z,99580.16
2022-11-05T22:13:54.317Z,99577.84
2022-11-05T22:16:21.126Z,99575.34
2022-11-05T22:18:47.932Z,99571.09
2022-11-05T22:21:18.646Z,99573.22
2022-11-05T22:23:45.593Z,99572.94
2022-11-05T22:26:12.424Z,99563.69
2022-11-05T22:28:39.272Z,99559.84
2022-11-05T22:31:15.725Z,99560.81
2022-11-05T22:33:43.436Z,99566.41
2022-11-05T22:36:11.375Z,99553.13
2022-11-05T22:38:38.673Z,99552.25
2022-11-05T22:41:14.041Z,99553.50
2022-11-05T22:43:41.126Z,99547.94
2022-11-05T22:46:16.583Z,99549.22
2022-11-05T22:48:44.027Z,99556.91
2022-11-05T22:51:13.387Z,99556.53
2022-11-05T22:53:41.460Z,99555.81
2022-11-05T22:56:13.638Z,99558.38
2022-11-05T22:58:40.498Z,99567.84
2022-11-05T23:01:08.756Z,99567.78
2022-11-05T23:03:36.015Z,99563.75
2022-11-05T23:06:27.682Z,99565.47
2022-11-05T23:09:13.080Z,99575.44
2022-11-05T23:11:44.116Z,99583.72
2022-11-05T23:14:13.407Z,99576.97
2022-11-05T23:16:59.770Z,99579.25
2022-11-05T23:19:45.676Z,99579.25
2022-11-05T23:22:33.717Z,99576.09
2022-11-05T23:25:00.758Z,99581.53
2022-11-05T23:27:32.543Z,99584.63
2022-11-05T23:30:01.303Z,99580.44
2022-11-05T23:32:31.122Z,99580.13
2022-11-05T23:34:59.015Z,99585.06
2022-11-05T23:37:46.281Z,99582.25
2022-11-05T23:40:22.718Z,99579.22
2022-11-05T23:43:08.485Z,99588.25
2022-11-05T23:45:47.999Z,99601.25
2022-11-05T23:48:23.194Z,99583.28
2022-11-05T23:50:55.501Z,99588.09
2022-11-05T23:53:22.528Z,99588.19
2022-11-05T23:55:49.827Z,99591.34
2022-11-05T23:58:17.497Z,99585.50
